createdAt,value
2022-10-05T00:02:20.846Z,99936.09
2022-10-05T00:04:49.063Z,99945.38
2022-10-05T00:07:16.959Z,99936.97
2022-10-05T00:09:51.793Z,99932.91
2022-10-05T00:12:19.928Z,99924.53
2022-10-05T00:14:49.512Z,99917.47
2022-10-05T00:17:26.309Z,99921.88
2022-10-05T00:19:54.116Z,99918.34
2022-10-05T00:22:22.659Z,99907.47
2022-10-05T00:24:51.592Z,99852.19
2022-10-05T00:27:37.607Z,99894.06
2022-10-05T00:30:18.017Z,99897.56
2022-10-05T00:32:45.021Z,99900.09
2022-10-05T00:35:12.643Z,99898.50
2022-10-05T00:37:39.703Z,99900.16
2022-10-05T00:40:15.551Z,99905.94
2022-10-05T00:42:45.474Z,99901.88
2022-10-05T00:45:14.179Z,99877.50
2022-10-05T00:48:05.843Z,99899.84
2022-10-05T00:50:54.615Z,99893.38
2022-10-05T00:53:40.068Z,99884.16
2022-10-05T00:56:14.223Z,99878.50
2022-10-05T00:59:08.720Z,99863.53
2022-10-05T01:02:06.316Z,99883.75
2022-10-05T01:04:46.954Z,99878.09
2022-10-05T01:07:16.668Z,99867.25
2022-10-05T01:10:09.301Z,99873.50
2022-10-05T01:13:00.765Z,99860.28
2022-10-05T01:15:37.096Z,99861.19
2022-10-05T01:18:28.047Z,99832.56
2022-10-05T01:21:30.426Z,99855.59
2022-10-05T01:24:07.465Z,99854.56
2022-10-05T01:26:56.214Z,99842.66
2022-10-05T01:29:58.330Z,99838.59
2022-10-05T01:32:57.314Z,99836.25
2022-10-05T01:35:36.193Z,99840.91
2022-10-05T01:38:29.879Z,99847.41
2022-10-05T01:41:15.838Z,99840.97
2022-10-05T01:43:55.259Z,99827.31
2022-10-05T01:46:24.540Z,99848.16
2022-10-05T01:49:28.727Z,99837.31
2022-10-05T01:52:33.181Z,99836.28
2022-10-05T01:55:09.009Z,99835.78
2022-10-05T01:57:51.303Z,99833.91
2022-10-05T02:00:18.437Z,99834.81
2022-10-05T02:02:45.466Z,99835.38
2022-10-05T02:05:21.664Z,99842.16
2022-10-05T02:07:54.972Z,99828.72
2022-10-05T02:10:54.093Z,99821.19
2022-10-05T02:13:45.780Z,99822.34
2022-10-05T02:16:17.239Z,99821.09
2022-10-05T02:18:54.844Z,99796.19
2022-10-05T02:21:21.771Z,99816.53
2022-10-05T02:23:49.592Z,99815.31
2022-10-05T02:26:16.579Z,99809.41
2022-10-05T02:28:43.972Z,99798.44
2022-10-05T02:31:15.124Z,99791.81
2022-10-05T02:33:42.104Z,99795.75
2022-10-05T02:36:25.262Z,99789.00
2022-10-05T02:39:23.664Z,99770.53
2022-10-05T02:41:52.989Z,99794.38
2022-10-05T02:44:28.435Z,99785.94
2022-10-05T02:46:58.602Z,99787.34
2022-10-05T02:49:41.475Z,99795.50
2022-10-05T02:52:18.852Z,99795.31
2022-10-05T02:55:02.372Z,99782.50
2022-10-05T02:58:05.631Z,99795.00
2022-10-05T03:00:35.081Z,99791.88
2022-10-05T03:03:12.090Z,99779.66
2022-10-05T03:05:46.543Z,99806.19
2022-10-05T03:08:19.900Z,99798.41
2022-10-05T03:10:59.114Z,99809.72
2022-10-05T03:13:31.508Z,99811.44
2022-10-05T03:16:01.677Z,99816.97
2022-10-05T03:18:47.034Z,99822.00
2022-10-05T03:21:35.831Z,99825.25
2022-10-05T03:24:08.398Z,99830.09
2022-10-05T03:26:42.000Z,99822.47
2022-10-05T03:29:14.955Z,99829.44
2022-10-05T03:31:56.723Z,99812.31
2022-10-05T03:34:35.604Z,99853.91
2022-10-05T03:37:15.652Z,99831.28
2022-10-05T03:40:32.132Z,99860.75
2022-10-05T03:43:17.702Z,99863.97
2022-10-05T03:45:56.976Z,99865.41
2022-10-05T03:48:33.610Z,99867.19
2022-10-05T03:51:15.791Z,99869.69
2022-10-05T03:53:49.620Z,99863.28
2022-10-05T03:56:21.872Z,99866.66
2022-10-05T03:59:18.666Z,99870.69
2022-10-05T04:01:48.501Z,99866.72
2022-10-05T04:04:33.836Z,99852.13
2022-10-05T04:07:00.980Z,99853.13
2022-10-05T04:09:34.758Z,99853.44
2022-10-05T04:12:17.257Z,99855.72
2022-10-05T04:14:47.201Z,99845.16
2022-10-05T04:17:22.768Z,99842.00
2022-10-05T04:20:02.389Z,99822.25
2022-10-05T04:22:38.831Z,99814.66
2022-10-05T04:25:27.725Z,99805.13
2022-10-05T04:28:11.503Z,99830.91
2022-10-05T04:30:39.224Z,99813.53
2022-10-05T04:33:09.433Z,99832.53
2022-10-05T04:35:45.346Z,99832.28
2022-10-05T04:38:34.062Z,99836.47
2022-10-05T04:41:38.359Z,99833.16
2022-10-05T04:44:20.574Z,99834.44
2022-10-05T04:47:05.791Z,99844.44
2022-10-05T04:49:42.865Z,99841.28
2022-10-05T04:52:33.062Z,99844.56
2022-10-05T04:55:22.662Z,99842.34
2022-10-05T04:57:51.402Z,99842.19
2022-10-05T05:00:23.600Z,99848.31
2022-10-05T05:03:15.873Z,99820.63
2022-10-05T05:06:16.837Z,99844.22
2022-10-05T05:09:08.504Z,99836.13
2022-10-05T05:12:03.830Z,99828.63
2022-10-05T05:15:04.652Z,99836.09
2022-10-05T05:17:50.240Z,99834.53
2022-10-05T05:20:24.560Z,99835.84
2022-10-05T05:23:00.705Z,99830.22
2022-10-05T05:25:45.110Z,99834.75
2022-10-05T05:28:37.159Z,99829.59
2022-10-05T05:31:13.228Z,99823.06
2022-10-05T05:34:12.633Z,99822.88
2022-10-05T05:36:51.259Z,99798.72
2022-10-05T05:39:34.504Z,99818.88
2022-10-05T05:42:11.745Z,99823.06
2022-10-05T05:44:47.074Z,99829.19
2022-10-05T05:47:23.709Z,99836.28
2022-10-05T05:50:07.466Z,99836.59
2022-10-05T05:52:41.624Z,99836.28
2022-10-05T05:55:31.378Z,99833.09
2022-10-05T05:58:11.497Z,99831.28
2022-10-05T06:01:16.392Z,99844.00
2022-10-05T06:04:01.650Z,99851.41
2022-10-05T06:06:32.766Z,99848.81
2022-10-05T06:09:40.290Z,99857.53
2022-10-05T06:12:44.824Z,99832.66
2022-10-05T06:15:30.818Z,99857.94
2022-10-05T06:18:01.168Z,99813.63
2022-10-05T06:20:45.667Z,99828.69
2022-10-05T06:23:25.493Z,99821.94
2022-10-05T06:26:14.415Z,99826.59
2022-10-05T06:28:43.301Z,99789.22
2022-10-05T06:31:35.100Z,99820.53
2022-10-05T06:34:14.813Z,99812.44
2022-10-05T06:36:46.491Z,99820.25
2022-10-05T06:39:32.409Z,99828.69
2022-10-05T06:42:42.671Z,99795.56
2022-10-05T06:45:42.943Z,99809.50
2022-10-05T06:48:31.714Z,99838.63
2022-10-05T06:51:40.082Z,99844.19
2022-10-05T06:54:47.300Z,99847.81
2022-10-05T06:57:24.691Z,99842.03
2022-10-05T07:00:05.056Z,99841.66
2022-10-05T07:02:53.964Z,99840.72
2022-10-05T07:05:33.974Z,99846.09
2022-10-05T07:08:07.069Z,99832.78
2022-10-05T07:10:52.802Z,99839.13
2022-10-05T07:13:38.186Z,99841.06
2022-10-05T07:16:25.517Z,99808.06
2022-10-05T07:19:10.166Z,99830.34
2022-10-05T07:22:00.929Z,99834.88
2022-10-05T07:24:42.035Z,99836.97
2022-10-05T07:27:20.347Z,99811.34
2022-10-05T07:30:16.720Z,99835.84
2022-10-05T07:32:47.533Z,99833.41
2022-10-05T07:35:34.381Z,99842.94
2022-10-05T07:38:36.720Z,99835.69
2022-10-05T07:41:03.847Z,99843.44
2022-10-05T07:43:57.958Z,99846.66
2022-10-05T07:46:24.087Z,99841.13
2022-10-05T07:49:05.723Z,99842.09
2022-10-05T07:51:36.749Z,99839.66
2022-10-05T07:54:06.916Z,99824.22
2022-10-05T07:56:40.285Z,99796.47
2022-10-05T07:59:11.979Z,99822.53
2022-10-05T08:01:45.055Z,99814.16
2022-10-05T08:04:19.816Z,99809.59
2022-10-05T08:07:13.957Z,99818.16
2022-10-05T08:10:08.825Z,99815.69
2022-10-05T08:13:04.749Z,99816.59
2022-10-05T08:15:43.223Z,99831.59
2022-10-05T08:18:45.310Z,99833.00
2022-10-05T08:21:13.475Z,99837.16
2022-10-05T08:23:48.426Z,99844.47
2022-10-05T08:26:40.023Z,99848.97
2022-10-05T08:29:28.109Z,99856.69
2022-10-05T08:32:03.122Z,99858.63
2022-10-05T08:34:40.236Z,99869.69
2022-10-05T08:37:10.896Z,99857.50
2022-10-05T08:39:49.223Z,99856.19
2022-10-05T08:42:22.296Z,99860.94
2022-10-05T08:45:09.432Z,99863.50
2022-10-05T08:47:39.231Z,99864.25
2022-10-05T08:50:31.884Z,99862.03
2022-10-05T08:53:17.105Z,99864.72
2022-10-05T08:55:56.269Z,99860.53
2022-10-05T08:58:52.373Z,99851.72
2022-10-05T09:01:20.987Z,99860.34
2022-10-05T09:04:15.488Z,99853.75
2022-10-05T09:07:10.931Z,99841.19
2022-10-05T09:09:45.252Z,99840.41
2022-10-05T09:12:40.464Z,99828.34
2022-10-05T09:15:24.793Z,99839.84
2022-10-05T09:18:26.667Z,99827.50
2022-10-05T09:21:24.212Z,99805.56
2022-10-05T09:24:02.401Z,99801.69
2022-10-05T09:26:52.625Z,99828.31
2022-10-05T09:29:19.634Z,99824.31
2022-10-05T09:32:25.118Z,99810.78
2022-10-05T09:34:55.761Z,99824.22
2022-10-05T09:37:49.952Z,99820.75
2022-10-05T09:40:41.841Z,99821.34
2022-10-05T09:43:26.676Z,99816.03
2022-10-05T09:46:24.920Z,99820.50
2022-10-05T09:49:11.542Z,99818.44
2022-10-05T09:51:58.786Z,99816.16
2022-10-05T09:54:31.643Z,99820.81
2022-10-05T09:57:31.117Z,99821.06
2022-10-05T10:00:09.529Z,99814.72
2022-10-05T10:03:13.502Z,99814.19
2022-10-05T10:06:10.623Z,99812.25
2022-10-05T10:08:52.971Z,99801.22
2022-10-05T10:11:33.909Z,99809.25
2022-10-05T10:14:39.255Z,99812.41
2022-10-05T10:17:38.410Z,99813.03
2022-10-05T10:20:20.364Z,99814.75
2022-10-05T10:23:02.305Z,99810.03
2022-10-05T10:25:32.126Z,99817.16
2022-10-05T10:28:23.294Z,99819.06
2022-10-05T10:31:15.199Z,99820.97
2022-10-05T10:34:00.692Z,99821.50
2022-10-05T10:36:54.196Z,99833.78
2022-10-05T10:39:41.391Z,99832.47
2022-10-05T10:42:26.350Z,99828.53
2022-10-05T10:45:22.910Z,99822.22
2022-10-05T10:48:29.702Z,99834.78
2022-10-05T10:51:19.803Z,99829.00
2022-10-05T10:53:57.658Z,99836.03
2022-10-05T10:56:51.022Z,99815.19
2022-10-05T10:59:37.381Z,99844.22
2022-10-05T11:02:28.880Z,99840.56
2022-10-05T11:05:17.533Z,99846.72
2022-10-05T11:08:13.649Z,99839.88
2022-10-05T11:11:02.860Z,99842.28
2022-10-05T11:13:52.720Z,99841.03
2022-10-05T11:16:28.367Z,99835.00
2022-10-05T11:19:40.741Z,99833.91
2022-10-05T11:22:35.246Z,99830.69
2022-10-05T11:25:17.284Z,99826.94
2022-10-05T11:27:53.625Z,99835.31
2022-10-05T11:30:21.493Z,99842.44
2022-10-05T11:33:11.281Z,99831.81
2022-10-05T11:35:52.953Z,99827.09
2022-10-05T11:38:51.444Z,99813.47
2022-10-05T11:41:31.379Z,99825.91
2022-10-05T11:44:06.327Z,99814.66
2022-10-05T11:46:46.471Z,99810.06
2022-10-05T11:49:22.288Z,99812.13
2022-10-05T11:52:02.031Z,99810.06
2022-10-05T11:54:46.602Z,99813.03
2022-10-05T11:57:49.373Z,99814.53
2022-10-05T12:00:21.411Z,99815.00
2022-10-05T12:02:54.653Z,99803.16
2022-10-05T12:05:33.930Z,99821.88
2022-10-05T12:08:12.856Z,99825.59
2022-10-05T12:10:59.320Z,99819.69
2022-10-05T12:13:38.200Z,99777.25
2022-10-05T12:16:22.756Z,99813.28
2022-10-05T12:19:14.358Z,99806.53
2022-10-05T12:21:48.251Z,99808.47
2022-10-05T12:24:46.380Z,99819.13
2022-10-05T12:27:20.599Z,99809.66
2022-10-05T12:30:03.819Z,99796.63
2022-10-05T12:32:30.800Z,99798.44
2022-10-05T12:35:03.517Z,99795.75
2022-10-05T12:37:44.193Z,99779.81
2022-10-05T12:40:20.310Z,99796.25
2022-10-05T12:42:59.179Z,99792.31
2022-10-05T12:45:47.456Z,99766.50
2022-10-05T12:48:38.973Z,99781.25
2022-10-05T12:51:09.715Z,99791.59
2022-10-05T12:54:13.102Z,99776.31
2022-10-05T12:56:46.038Z,99768.44
2022-10-05T12:59:36.004Z,99773.25
2022-10-05T13:02:07.411Z,99765.69
2022-10-05T13:05:11.649Z,99765.34
2022-10-05T13:07:44.033Z,99765.34
2022-10-05T13:10:39.045Z,99762.22
2022-10-05T13:13:10.326Z,99760.59
2022-10-05T13:15:44.358Z,99750.72
2022-10-05T13:18:30.508Z,99704.78
2022-10-05T13:21:02.284Z,99746.66
2022-10-05T13:23:39.852Z,99746.22
2022-10-05T13:26:13.066Z,99741.81
2022-10-05T13:29:01.194Z,99744.94
2022-10-05T13:31:55.922Z,99750.41
2022-10-05T13:34:26.647Z,99747.19
2022-10-05T13:37:02.814Z,99752.72
2022-10-05T13:39:39.249Z,99747.88
2022-10-05T13:42:26.889Z,99740.75
2022-10-05T13:44:55.856Z,99740.31
2022-10-05T13:47:50.979Z,99731.22
2022-10-05T13:50:19.492Z,99734.72
2022-10-05T13:52:58.208Z,99737.81
2022-10-05T13:56:06.282Z,99729.47
2022-10-05T13:58:39.994Z,99734.88
2022-10-05T14:01:16.772Z,99738.38
2022-10-05T14:04:04.398Z,99741.13
2022-10-05T14:06:31.280Z,99732.75
2022-10-05T14:08:58.198Z,99735.09
2022-10-05T14:11:34.978Z,99731.84
2022-10-05T14:14:14.480Z,99732.25
2022-10-05T14:16:58.228Z,99736.53
2022-10-05T14:19:32.111Z,99735.28
2022-10-05T14:22:01.700Z,99723.34
2022-10-05T14:24:44.633Z,99729.69
2022-10-05T14:27:32.907Z,99715.44
2022-10-05T14:30:08.665Z,99713.00
2022-10-05T14:32:55.990Z,99716.16
2022-10-05T14:35:28.933Z,99714.91
2022-10-05T14:38:01.055Z,99693.31
2022-10-05T14:40:33.040Z,99681.03
2022-10-05T14:43:20.252Z,99712.03
2022-10-05T14:45:53.285Z,99700.06
2022-10-05T14:48:20.160Z,99688.22
2022-10-05T14:51:09.367Z,99682.41
2022-10-05T14:53:43.348Z,99698.41
2022-10-05T14:56:17.181Z,99702.25
2022-10-05T14:58:47.069Z,99692.72
2022-10-05T15:01:19.480Z,99694.69
2022-10-05T15:04:01.655Z,99695.06
2022-10-05T15:06:30.411Z,99690.63
2022-10-05T15:09:19.921Z,99697.31
2022-10-05T15:11:56.601Z,99690.50
2022-10-05T15:14:35.944Z,99688.88
2022-10-05T15:17:16.734Z,99695.13
2022-10-05T15:19:59.911Z,99689.06
2022-10-05T15:22:42.704Z,99694.25
2022-10-05T15:25:16.613Z,99682.31
2022-10-05T15:28:17.534Z,99686.13
2022-10-05T15:30:54.159Z,99685.34
2022-10-05T15:33:23.788Z,99683.31
2022-10-05T15:35:56.384Z,99680.88
2022-10-05T15:38:25.859Z,99673.72
2022-10-05T15:41:01.160Z,99635.28
2022-10-05T15:43:58.527Z,99672.81
2022-10-05T15:46:46.466Z,99674.84
2022-10-05T15:49:52.346Z,99671.66
2022-10-05T15:52:24.873Z,99674.63
2022-10-05T15:55:23.318Z,99671.88
2022-10-05T15:58:07.863Z,99655.91
2022-10-05T16:00:44.934Z,99664.56
2022-10-05T16:03:23.454Z,99652.63
2022-10-05T16:06:18.238Z,99658.78
2022-10-05T16:08:55.907Z,99654.78
2022-10-05T16:11:48.934Z,99653.53
2022-10-05T16:14:29.356Z,99661.75
2022-10-05T16:17:02.009Z,99656.88
2022-10-05T16:19:38.089Z,99664.59
2022-10-05T16:22:43.455Z,99651.09
2022-10-05T16:25:28.708Z,99651.34
2022-10-05T16:28:34.749Z,99663.44
2022-10-05T16:31:26.463Z,99651.88
2022-10-05T16:34:23.294Z,99656.13
2022-10-05T16:37:02.674Z,99657.56
2022-10-05T16:40:00.890Z,99661.09
2022-10-05T16:42:34.876Z,99671.25
2022-10-05T16:45:23.096Z,99671.63
2022-10-05T16:47:55.551Z,99682.19
2022-10-05T16:50:59.830Z,99677.03
2022-10-05T16:53:41.679Z,99684.31
2022-10-05T16:56:17.295Z,99659.13
2022-10-05T16:59:11.124Z,99676.31
2022-10-05T17:01:50.106Z,99672.19
2022-10-05T17:04:43.198Z,99665.69
2022-10-05T17:07:53.103Z,99669.50
2022-10-05T17:10:37.191Z,99673.69
2022-10-05T17:13:45.758Z,99677.13
2022-10-05T17:16:40.353Z,99674.94
2022-10-05T17:19:37.614Z,99670.84
2022-10-05T17:22:31.659Z,99674.19
2022-10-05T17:25:22.448Z,99674.44
2022-10-05T17:27:55.357Z,99681.00
2022-10-05T17:30:29.478Z,99661.66
2022-10-05T17:33:04.506Z,99667.72
2022-10-05T17:36:06.608Z,99670.38
2022-10-05T17:38:38.305Z,99673.72
2022-10-05T17:41:37.139Z,99673.63
2022-10-05T17:44:06.733Z,99676.59
2022-10-05T17:46:41.686Z,99667.09
2022-10-05T17:49:39.846Z,99671.34
2022-10-05T17:52:45.010Z,99675.38
2022-10-05T17:55:34.194Z,99667.78
2022-10-05T17:58:24.322Z,99669.16
2022-10-05T18:00:57.293Z,99672.38
2022-10-05T18:03:40.724Z,99672.72
2022-10-05T18:06:25.372Z,99668.25
2022-10-05T18:09:32.346Z,99669.63
2022-10-05T18:12:12.726Z,99655.78
2022-10-05T18:15:02.096Z,99681.44
2022-10-05T18:17:41.264Z,99681.44
2022-10-05T18:20:39.844Z,99675.50
2022-10-05T18:23:29.403Z,99683.38
2022-10-05T18:26:16.008Z,99686.03
2022-10-05T18:29:36.354Z,99686.59
2022-10-05T18:32:08.255Z,99679.94
2022-10-05T18:35:02.007Z,99682.34
2022-10-05T18:37:45.200Z,99679.72
2022-10-05T18:40:12.323Z,99673.28
2022-10-05T18:42:46.082Z,99671.69
2022-10-05T18:45:26.087Z,99671.59
2022-10-05T18:48:24.086Z,99663.19
2022-10-05T18:50:59.929Z,99658.91
2022-10-05T18:53:33.165Z,99667.38
2022-10-05T18:56:25.996Z,99660.66
2022-10-05T18:58:56.737Z,99659.22
2022-10-05T19:01:28.006Z,99669.91
2022-10-05T19:04:09.539Z,99667.34
2022-10-05T19:06:39.254Z,99663.56
2022-10-05T19:09:34.849Z,99674.88
2022-10-05T19:12:18.127Z,99649.31
2022-10-05T19:15:06.340Z,99684.38
2022-10-05T19:17:48.145Z,99688.78
2022-10-05T19:20:23.940Z,99683.41
2022-10-05T19:23:18.604Z,99688.34
2022-10-05T19:25:48.795Z,99683.69
2022-10-05T19:28:21.754Z,99697.66
2022-10-05T19:31:09.974Z,99702.22
2022-10-05T19:33:59.006Z,99702.41
2022-10-05T19:36:40.064Z,99702.75
2022-10-05T19:39:06.813Z,99699.41
2022-10-05T19:42:24.950Z,99703.63
2022-10-05T19:45:09.844Z,99700.69
2022-10-05T19:47:42.364Z,99703.78
2022-10-05T19:50:29.257Z,99706.41
2022-10-05T19:53:08.167Z,99695.94
2022-10-05T19:55:39.683Z,99697.09
2022-10-05T19:58:20.002Z,99673.84
2022-10-05T20:00:59.899Z,99694.41
2022-10-05T20:03:31.009Z,99693.34
2022-10-05T20:05:59.557Z,99691.72
2022-10-05T20:08:27.582Z,99668.91
2022-10-05T20:11:27.244Z,99684.94
2022-10-05T20:13:54.962Z,99692.25
2022-10-05T20:16:50.430Z,99685.47
2022-10-05T20:19:50.900Z,99688.28
2022-10-05T20:22:37.409Z,99696.25
2022-10-05T20:25:06.340Z,99680.66
2022-10-05T20:27:43.753Z,99699.28
2022-10-05T20:30:14.767Z,99699.63
2022-10-05T20:32:42.141Z,99690.28
2022-10-05T20:35:09.010Z,99699.50
2022-10-05T20:37:36.839Z,99698.69
2022-10-05T20:40:05.068Z,99699.63
2022-10-05T20:42:32.000Z,99705.44
2022-10-05T20:44:58.893Z,99708.97
2022-10-05T20:47:25.971Z,99680.06
2022-10-05T20:49:55.990Z,99711.13
2022-10-05T20:52:23.304Z,99708.72
2022-10-05T20:54:53.849Z,99711.75
2022-10-05T20:57:21.334Z,99716.78
2022-10-05T20:59:48.206Z,99718.75
2022-10-05T21:02:15.042Z,99692.66
2022-10-05T21:04:46.793Z,99718.56
2022-10-05T21:07:17.836Z,99718.44
2022-10-05T21:09:46.545Z,99716.31
2022-10-05T21:12:13.724Z,99688.03
2022-10-05T21:14:40.655Z,99710.88
2022-10-05T21:17:07.593Z,99717.16
2022-10-05T21:19:38.478Z,99696.09
2022-10-05T21:22:09.067Z,99695.47
2022-10-05T21:24:36.957Z,99722.66
2022-10-05T21:27:04.132Z,99718.16
2022-10-05T21:29:31.213Z,99715.28
2022-10-05T21:31:58.086Z,99720.59
2022-10-05T21:34:25.020Z,99725.63
2022-10-05T21:36:51.877Z,99729.31
2022-10-05T21:39:19.273Z,99725.94
2022-10-05T21:41:46.528Z,99727.22
2022-10-05T21:44:13.379Z,99734.97
2022-10-05T21:46:40.229Z,99730.13
2022-10-05T21:49:07.323Z,99731.28
2022-10-05T21:51:34.215Z,99729.34
2022-10-05T21:54:03.567Z,99724.69
2022-10-05T21:56:32.267Z,99727.25
2022-10-05T21:58:59.292Z,99724.53
2022-10-05T22:01:26.209Z,99724.06
2022-10-05T22:03:53.085Z,99721.63
2022-10-05T22:06:19.957Z,99718.75
2022-10-05T22:08:46.773Z,99725.38
2022-10-05T22:11:15.249Z,99731.00
2022-10-05T22:13:47.289Z,99730.84
2022-10-05T22:16:14.418Z,99727.13
2022-10-05T22:18:41.551Z,99730.34
2022-10-05T22:21:09.996Z,99725.53
2022-10-05T22:23:36.989Z,99721.81
2022-10-05T22:26:03.831Z,99727.28
2022-10-05T22:28:31.742Z,99726.34
2022-10-05T22:30:59.908Z,99720.19
2022-10-05T22:33:27.184Z,99727.94
2022-10-05T22:35:55.451Z,99723.72
2022-10-05T22:38:22.289Z,99728.41
2022-10-05T22:40:49.155Z,99726.31
2022-10-05T22:43:16.445Z,99735.97
2022-10-05T22:45:43.313Z,99735.81
2022-10-05T22:49:06.496Z,99746.25
2022-10-05T22:51:33.401Z,99732.09
2022-10-05T22:54:00.235Z,99743.34
2022-10-05T22:56:28.378Z,99756.88
2022-10-05T22:58:55.257Z,99756.38
2022-10-05T23:01:22.168Z,99749.16
2022-10-05T23:03:49.182Z,99754.13
2022-10-05T23:06:17.872Z,99750.09
2022-10-05T23:08:45.086Z,99763.63
2022-10-05T23:11:13.910Z,99760.56
2022-10-05T23:13:40.812Z,99754.59
2022-10-05T23:16:13.269Z,99764.75
2022-10-05T23:18:40.392Z,99759.91
2022-10-05T23:21:08.462Z,99761.47
2022-10-05T23:23:47.476Z,99741.34
2022-10-05T23:26:15.109Z,99767.44
2022-10-05T23:28:49.298Z,99761.97
2022-10-05T23:31:21.318Z,99783.84
2022-10-05T23:33:48.217Z,99778.22
2022-10-05T23:36:16.885Z,99778.03
2022-10-05T23:38:44.028Z,99783.03
2022-10-05T23:41:10.867Z,99787.38
2022-10-05T23:43:37.936Z,99787.03
2022-10-05T23:46:05.495Z,99798.59
2022-10-05T23:48:32.718Z,99801.47
2022-10-05T23:50:59.807Z,99800.97
2022-10-05T23:53:26.658Z,99808.66
2022-10-05T23:55:53.679Z,99815.44
2022-10-05T23:58:20.940Z,99825.06
